Time;durP1;ratioP1;P1;durP2;ratioP2;P2;SDS_P1;SDS_P2;PMS_P1;PMS_P2;Temp;Humidity;BMP_temperature;BMP_pressure;BME280_temperature;BME280_humidity;BME280_pressure;Samples;Min_cycle;Max_cycle;Signal;HPM_P1;HPM_P2
2023/12/08 00:00:57;;;;;;;15.60;6.22;;;2.80;99.90;;;;;;5015251;28;20366;-75
2023/12/08 00:03:23;;;;;;;16.10;6.45;;;2.70;99.90;;;;;;5015070;28;20084;-75
2023/12/08 00:05:49;;;;;;;15.13;6.00;;;2.70;99.90;;;;;;5015178;28;20527;-75
2023/12/08 00:08:14;;;;;;;18.25;5.65;;;2.70;99.90;;;;;;5014881;28;20022;-75
2023/12/08 00:10:40;;;;;;;16.38;5.95;;;2.70;99.90;;;;;;5014982;28;20029;-75
2023/12/08 00:13:05;;;;;;;16.60;6.38;;;2.70;99.90;;;;;;5013570;28;20033;-75
2023/12/08 00:15:31;;;;;;;16.33;6.00;;;2.70;99.90;;;;;;5014723;28;20022;-75
2023/12/08 00:17:57;;;;;;;15.90;6.05;;;2.70;99.90;;;;;;5014662;28;20064;-75
2023/12/08 00:20:23;;;;;;;16.23;6.63;;;2.80;99.90;;;;;;5014590;28;20145;-75
2023/12/08 00:22:49;;;;;;;16.77;6.57;;;2.80;99.90;;;;;;5014866;28;20026;-75
2023/12/08 00:25:17;;;;;;;15.93;6.25;;;2.70;99.90;;;;;;5014926;28;20453;-75
2023/12/08 00:27:42;;;;;;;16.70;6.28;;;2.70;99.90;;;;;;5014528;28;20458;-75
2023/12/08 00:30:08;;;;;;;16.38;6.13;;;2.70;99.90;;;;;;5014396;28;20021;-75
2023/12/08 00:32:34;;;;;;;17.08;6.63;;;2.70;99.90;;;;;;5014672;28;20017;-75
2023/12/08 00:34:59;;;;;;;16.73;6.63;;;2.70;99.90;;;;;;5014201;28;20018;-76
2023/12/08 00:37:25;;;;;;;18.33;6.75;;;2.70;99.90;;;;;;5014247;28;20049;-75
2023/12/08 00:39:50;;;;;;;19.83;7.32;;;2.70;99.90;;;;;;5014108;28;20026;-76
2023/12/08 00:42:16;;;;;;;15.88;6.88;;;2.60;99.90;;;;;;5014180;28;20051;-76
2023/12/08 00:44:41;;;;;;;17.42;7.05;;;2.60;99.90;;;;;;5014645;28;20038;-76
2023/12/08 00:47:07;;;;;;;16.02;6.25;;;2.70;99.90;;;;;;5013778;28;20036;-76
2023/12/08 00:49:33;;;;;;;20.02;8.02;;;2.60;99.90;;;;;;5012762;28;20056;-76
2023/12/08 00:51:58;;;;;;;20.48;7.53;;;2.70;99.90;;;;;;5014389;28;20040;-75
2023/12/08 00:54:24;;;;;;;17.45;6.40;;;2.60;99.90;;;;;;5012832;28;20452;-76
2023/12/08 00:56:50;;;;;;;17.85;7.07;;;;;;;;;;5014022;28;20034;-75
2023/12/08 00:59:15;;;;;;;19.10;6.82;;;2.60;99.90;;;;;;5014219;28;20378;-75
2023/12/08 01:01:41;;;;;;;16.77;6.70;;;2.60;99.90;;;;;;5012550;28;20117;-75
2023/12/08 01:04:06;;;;;;;21.67;6.55;;;2.60;99.90;;;;;;5013656;28;20037;-76
2023/12/08 01:06:32;;;;;;;21.02;7.50;;;2.60;99.90;;;;;;5012625;28;20032;-75
2023/12/08 01:08:57;;;;;;;18.23;7.55;;;2.60;99.90;;;;;;5012541;28;20029;-76
2023/12/08 01:11:23;;;;;;;21.40;7.97;;;2.60;99.90;;;;;;5013917;28;20087;-76
2023/12/08 01:13:48;;;;;;;18.85;6.95;;;2.60;99.90;;;;;;5013731;28;20496;-76
2023/12/08 01:16:14;;;;;;;16.25;6.85;;;2.60;99.90;;;;;;5013922;28;20046;-76
2023/12/08 01:18:40;;;;;;;19.38;8.02;;;2.70;99.90;;;;;;5014584;28;20079;-76
2023/12/08 01:21:06;;;;;;;22.00;7.68;;;2.70;99.90;;;;;;5012212;28;20030;-76
2023/12/08 01:23:32;;;;;;;20.40;7.35;;;2.70;99.90;;;;;;5012389;28;20113;-75
2023/12/08 01:25:57;;;;;;;21.95;8.27;;;2.70;99.90;;;;;;5012698;28;20052;-75
2023/12/08 01:28:23;;;;;;;21.90;7.97;;;2.80;99.90;;;;;;5013543;28;20022;-75
2023/12/08 01:30:48;;;;;;;20.02;7.57;;;2.70;99.90;;;;;;5013664;28;20049;-75
2023/12/08 01:33:14;;;;;;;19.77;6.88;;;2.70;99.90;;;;;;5012761;28;20096;-75
2023/12/08 01:35:40;;;;;;;19.35;7.70;;;2.70;99.90;;;;;;5013922;28;20057;-75
2023/12/08 01:38:08;;;;;;;20.27;7.28;;;2.70;99.90;;;;;;5013673;28;20026;-76
2023/12/08 01:40:33;;;;;;;21.38;8.60;;;2.70;99.90;;;;;;5013508;28;20025;-75
2023/12/08 01:42:59;;;;;;;17.25;6.57;;;2.70;99.90;;;;;;5012287;28;20039;-75
2023/12/08 01:45:24;;;;;;;19.33;7.47;;;2.70;99.90;;;;;;5013583;28;20030;-76
2023/12/08 01:47:50;;;;;;;20.73;7.47;;;2.70;99.90;;;;;;5014061;28;20054;-75
2023/12/08 01:50:17;;;;;;;19.73;7.75;;;2.70;99.90;;;;;;5013384;28;20145;-76
2023/12/08 01:52:44;;;;;;;18.20;7.38;;;2.80;99.90;;;;;;5013240;28;20030;-75
2023/12/08 01:55:10;;;;;;;20.23;7.47;;;2.80;99.90;;;;;;5013808;28;20022;-75
2023/12/08 01:57:36;;;;;;;18.10;6.88;;;2.70;99.90;;;;;;5012196;28;20485;-75
2023/12/08 02:00:02;;;;;;;17.92;6.95;;;2.80;99.90;;;;;;5015349;28;20543;-75
2023/12/08 02:02:28;;;;;;;19.73;7.60;;;2.70;99.90;;;;;;5017150;28;20500;-75
2023/12/08 02:04:56;;;;;;;13.68;6.10;;;2.80;99.90;;;;;;5017266;28;20025;-75
2023/12/08 02:07:22;;;;;;;18.98;7.75;;;2.80;99.90;;;;;;5017011;28;20034;-76
2023/12/08 02:09:47;;;;;;;17.50;7.03;;;2.80;99.90;;;;;;5017103;28;20020;-75
2023/12/08 02:12:13;;;;;;;14.95;6.78;;;2.90;99.90;;;;;;5017581;28;20446;-75
2023/12/08 02:14:39;;;;;;;19.38;7.13;;;2.90;99.90;;;;;;5017076;28;20029;-75
2023/12/08 02:17:13;;;;;;;16.65;6.65;;;2.90;99.90;;;;;;5016966;28;20026;-76
2023/12/08 02:19:39;;;;;;;16.23;6.25;;;2.90;99.90;;;;;;5017436;28;20385;-75
2023/12/08 02:22:05;;;;;;;16.10;6.93;;;2.90;99.90;;;;;;5016931;28;20034;-76
2023/12/08 02:24:31;;;;;;;19.38;7.38;;;2.90;99.90;;;;;;5015480;28;20032;-75
2023/12/08 02:26:56;;;;;;;17.40;6.85;;;2.90;99.90;;;;;;5016910;28;20025;-75
2023/12/08 02:29:22;;;;;;;17.98;6.80;;;2.80;99.90;;;;;;5016610;28;20010;-75
2023/12/08 02:32:00;;;;;;;16.35;6.70;;;2.80;99.90;;;;;;5016353;28;20022;-76
2023/12/08 02:34:28;;;;;;;21.00;6.57;;;2.80;99.90;;;;;;5016381;28;20034;-75
2023/12/08 02:36:54;;;;;;;18.60;7.47;;;2.80;99.90;;;;;;5016783;28;20026;-75
2023/12/08 02:39:21;;;;;;;15.75;6.57;;;2.80;99.90;;;;;;5015244;28;20045;-75
2023/12/08 02:41:46;;;;;;;23.15;6.28;;;2.70;99.90;;;;;;5015344;28;20030;-75
2023/12/08 02:44:12;;;;;;;18.67;7.10;;;2.70;99.90;;;;;;5015158;28;20061;-75
2023/12/08 02:46:37;;;;;;;19.85;7.75;;;2.80;99.90;;;;;;5015114;28;20076;-75
2023/12/08 02:49:03;;;;;;;13.38;6.18;;;2.70;99.90;;;;;;5016892;28;20053;-75
2023/12/08 02:51:29;;;;;;;18.20;6.55;;;2.70;99.90;;;;;;5016320;28;20566;-75
2023/12/08 02:53:55;;;;;;;19.98;7.40;;;2.70;99.90;;;;;;5016291;28;20041;-75
2023/12/08 02:56:20;;;;;;;17.42;7.13;;;2.70;99.90;;;;;;5015138;28;20500;-75
2023/12/08 02:58:46;;;;;;;19.48;7.63;;;2.70;99.90;;;;;;5016186;28;20029;-75
2023/12/08 03:01:11;;;;;;;20.17;7.80;;;2.70;99.90;;;;;;5015901;28;20018;-76
2023/12/08 03:03:37;;;;;;;18.05;7.22;;;2.70;99.90;;;;;;5016239;28;20017;-75
2023/12/08 03:06:02;;;;;;;16.10;6.88;;;2.70;99.90;;;;;;5016548;28;20029;-75
2023/12/08 03:08:28;;;;;;;17.42;6.55;;;2.70;99.90;;;;;;5014397;28;20030;-75
2023/12/08 03:10:54;;;;;;;15.70;6.80;;;2.70;99.90;;;;;;5015782;28;20025;-75
2023/12/08 03:13:20;;;;;;;16.33;6.32;;;2.70;99.90;;;;;;5016320;28;20029;-75
2023/12/08 03:15:45;;;;;;;17.40;6.80;;;2.70;99.90;;;;;;5017037;28;20025;-75
2023/12/08 03:18:11;;;;;;;14.27;6.15;;;2.70;99.90;;;;;;5016183;28;20079;-75
2023/12/08 03:20:36;;;;;;;16.98;6.38;;;2.60;99.90;;;;;;5016113;28;20033;-75
2023/12/08 03:23:02;;;;;;;19.17;6.70;;;2.60;99.90;;;;;;5015911;28;20481;-75
2023/12/08 03:25:27;;;;;;;13.80;5.75;;;2.60;99.90;;;;;;5015923;28;20108;-75
2023/12/08 03:27:53;;;;;;;12.82;5.82;;;2.60;99.90;;;;;;5014512;28;20033;-75
2023/12/08 03:30:18;;;;;;;17.35;8.02;;;2.60;99.90;;;;;;5014378;28;20022;-75
2023/12/08 03:32:45;;;;;;;21.70;7.20;;;2.60;99.90;;;;;;5015503;28;20053;-75
2023/12/08 03:35:10;;;;;;;18.30;6.95;;;2.60;99.90;;;;;;5014081;28;20489;-75
2023/12/08 03:37:36;;;;;;;16.77;6.85;;;2.60;99.90;;;;;;5014178;28;20029;-75
2023/12/08 03:40:02;;;;;;;15.52;6.15;;;2.60;99.90;;;;;;5014189;28;20025;-75
2023/12/08 03:42:27;;;;;;;19.02;7.38;;;2.60;99.90;;;;;;5015467;28;20054;-75
2023/12/08 03:44:53;;;;;;;14.20;6.57;;;2.60;99.90;;;;;;5015443;28;20033;-75
2023/12/08 03:47:18;;;;;;;20.25;7.57;;;2.50;99.90;;;;;;5015615;28;20022;-75
2023/12/08 03:49:44;;;;;;;14.35;6.15;;;2.50;99.90;;;;;;5015919;28;20018;-75
2023/12/08 03:52:10;;;;;;;20.02;7.57;;;2.50;99.90;;;;;;5014695;28;20057;-75
2023/12/08 03:54:35;;;;;;;18.73;7.07;;;2.50;99.90;;;;;;5015991;28;20414;-75
2023/12/08 03:57:01;;;;;;;15.57;6.70;;;2.50;99.90;;;;;;5015520;28;20486;-75
2023/12/08 03:59:26;;;;;;;20.70;7.47;;;2.50;99.90;;;;;;5015297;28;20033;-75
2023/12/08 04:01:52;;;;;;;17.08;6.68;;;2.50;99.90;;;;;;5013798;28;20546;-76
2023/12/08 04:04:18;;;;;;;14.40;6.07;;;2.50;99.90;;;;;;5015132;28;20056;-75
2023/12/08 04:06:44;;;;;;;14.85;6.70;;;2.50;99.90;;;;;;5015812;28;20057;-75
2023/12/08 04:09:09;;;;;;;17.67;6.90;;;2.50;99.90;;;;;;5015177;28;20038;-75
2023/12/08 04:11:35;;;;;;;17.95;7.47;;;2.60;99.90;;;;;;5014564;28;20033;-76
2023/12/08 04:14:00;;;;;;;22.13;7.82;;;2.50;99.90;;;;;;5014415;28;20022;-75
2023/12/08 04:16:26;;;;;;;19.52;7.25;;;2.50;99.90;;;;;;5014656;28;20029;-76
2023/12/08 04:18:51;;;;;;;19.30;7.70;;;2.50;99.90;;;;;;5014640;28;20096;-75
2023/12/08 04:21:18;;;;;;;15.93;7.07;;;2.50;99.90;;;;;;5014185;28;20078;-75
2023/12/08 04:23:44;;;;;;;14.55;6.45;;;2.60;99.90;;;;;;5014367;28;20026;-75
2023/12/08 04:26:09;;;;;;;17.33;6.72;;;2.60;99.90;;;;;;5013666;28;20025;-75
2023/12/08 04:28:35;;;;;;;18.17;7.18;;;2.60;99.90;;;;;;5013282;28;20504;-75
2023/12/08 04:31:00;;;;;;;16.92;6.65;;;2.70;99.90;;;;;;5014690;28;20389;-75
2023/12/08 04:33:26;;;;;;;15.82;6.55;;;2.70;99.90;;;;;;5014750;28;20370;-75
2023/12/08 04:35:51;;;;;;;18.17;6.68;;;2.60;99.90;;;;;;5013120;28;20523;-75
2023/12/08 04:38:17;;;;;;;18.00;7.35;;;2.70;99.90;;;;;;5014716;28;20051;-75
2023/12/08 04:40:42;;;;;;;17.27;7.07;;;2.70;99.90;;;;;;5013024;28;20046;-75
2023/12/08 04:43:11;;;;;;;20.52;6.80;;;2.70;99.90;;;;;;5013131;28;20477;-76
2023/12/08 04:45:36;;;;;;;17.30;6.68;;;4.40;99.90;;;;;;5013253;28;20030;-75
2023/12/08 04:48:02;;;;;;;18.42;7.10;;;2.60;99.90;;;;;;5014054;28;20025;-75
2023/12/08 04:50:28;;;;;;;19.23;7.32;;;2.70;99.90;;;;;;5012807;28;20022;-75
2023/12/08 04:52:53;;;;;;;17.02;7.00;;;2.60;99.90;;;;;;5013887;28;20037;-75
2023/12/08 04:55:19;;;;;;;16.90;6.97;;;2.60;99.90;;;;;;5014056;28;20493;-75
2023/12/08 04:57:44;;;;;;;18.63;7.95;;;2.60;99.90;;;;;;5012950;28;20046;-75
2023/12/08 05:00:10;;;;;;;17.58;7.15;;;2.60;99.90;;;;;;5014066;28;20448;-75
2023/12/08 05:02:36;;;;;;;21.30;8.32;;;2.60;99.90;;;;;;5014131;28;20501;-75
2023/12/08 05:05:01;;;;;;;24.13;7.43;;;2.60;99.90;;;;;;5013963;28;20076;-75
2023/12/08 05:07:28;;;;;;;18.58;7.32;;;2.70;99.90;;;;;;5012768;28;20072;-75
2023/12/08 05:09:54;;;;;;;23.88;7.88;;;2.70;99.90;;;;;;5012647;28;20026;-75
2023/12/08 05:12:19;;;;;;;18.05;7.85;;;2.60;99.90;;;;;;5012574;28;20018;-75
2023/12/08 05:14:45;;;;;;;19.80;7.90;;;2.60;99.90;;;;;;5014579;28;20473;-75
2023/12/08 05:17:10;;;;;;;22.23;8.23;;;2.70;99.90;;;;;;5013805;28;20081;-75
2023/12/08 05:19:36;;;;;;;22.65;8.65;;;2.60;99.90;;;;;;5013533;28;20034;-75
2023/12/08 05:22:03;;;;;;;16.83;6.68;;;2.70;99.90;;;;;;5012497;28;20065;-75
2023/12/08 05:24:28;;;;;;;17.17;7.32;;;2.70;99.90;;;;;;5013724;28;20054;-75
2023/12/08 05:26:54;;;;;;;19.05;8.32;;;2.70;99.90;;;;;;5012601;28;20113;-75
2023/12/08 05:29:19;;;;;;;17.58;7.78;;;2.70;99.90;;;;;;5013976;28;20030;-75
2023/12/08 05:31:45;;;;;;;19.88;8.20;;;2.80;99.90;;;;;;5014091;28;20022;-75
2023/12/08 05:34:10;;;;;;;19.75;7.43;;;2.80;99.90;;;;;;5015030;28;20025;-75
2023/12/08 05:36:36;;;;;;;23.30;8.32;;;2.80;99.90;;;;;;5017286;28;20026;-75
2023/12/08 05:39:03;;;;;;;19.77;8.20;;;2.80;99.90;;;;;;5016173;28;20053;-75
2023/12/08 05:41:28;;;;;;;17.85;7.80;;;3.70;99.90;;;;;;5018258;28;20426;-75
2023/12/08 05:43:54;;;;;;;18.73;8.18;;;2.70;99.90;;;;;;5016076;28;20014;-75
2023/12/08 05:46:19;;;;;;;20.02;7.93;;;2.70;99.90;;;;;;5017755;28;20026;-76
2023/12/08 05:48:47;;;;;;;22.00;8.13;;;2.70;99.90;;;;;;5017173;28;20030;-75
2023/12/08 05:51:13;;;;;;;20.65;8.68;;;2.70;99.90;;;;;;5017320;28;20060;-75
2023/12/08 05:53:38;;;;;;;18.02;7.53;;;2.70;99.90;;;;;;5016133;28;20057;-75
2023/12/08 05:56:04;;;;;;;21.10;7.93;;;2.70;99.90;;;;;;5017018;28;20022;-75
2023/12/08 05:58:30;;;;;;;21.27;8.23;;;2.80;99.90;;;;;;5016151;28;20393;-75
2023/12/08 06:00:56;;;;;;;19.42;8.05;;;2.70;99.90;;;;;;5017234;28;20018;-75
2023/12/08 06:03:21;;;;;;;17.67;7.68;;;2.80;99.90;;;;;;5016253;28;20029;-75
2023/12/08 06:05:47;;;;;;;19.92;8.10;;;2.90;99.90;;;;;;5017603;28;20389;-75
2023/12/08 06:08:13;;;;;;;20.83;8.18;;;2.80;99.90;;;;;;5017210;28;20481;-75
2023/12/08 06:10:38;;;;;;;22.00;9.30;;;2.80;99.90;;;;;;5017078;28;20049;-76
2023/12/08 06:13:04;;;;;;;19.00;7.18;;;2.80;99.90;;;;;;5016118;28;20592;-75
2023/12/08 06:15:29;;;;;;;20.20;7.35;;;2.80;99.90;;;;;;5017056;28;20130;-75
2023/12/08 06:17:55;;;;;;;17.65;7.72;;;2.90;99.90;;;;;;5016913;28;20018;-75
2023/12/08 06:20:21;;;;;;;19.40;8.05;;;2.90;99.90;;;;;;5016749;28;20014;-75
2023/12/08 06:22:46;;;;;;;18.92;7.68;;;2.80;99.90;;;;;;5015783;28;20026;-75
2023/12/08 06:25:12;;;;;;;19.05;7.95;;;2.80;99.90;;;;;;5016128;28;20022;-75
2023/12/08 06:27:37;;;;;;;20.27;7.85;;;2.90;99.90;;;;;;5016920;28;20473;-75
2023/12/08 06:30:04;;;;;;;21.25;8.25;;;2.90;99.90;;;;;;5016719;28;20065;-75
2023/12/08 06:32:29;;;;;;;20.40;8.20;;;2.80;99.90;;;;;;5016586;28;20045;-75
2023/12/08 06:34:55;;;;;;;21.48;8.75;;;2.80;99.90;;;;;;5017131;28;20018;-76
2023/12/08 06:37:20;;;;;;;19.42;7.13;;;3.20;99.90;;;;;;5016765;28;20026;-75
2023/12/08 06:39:47;;;;;;;22.33;7.88;;;2.90;99.90;;;;;;5014928;28;20556;-76
2023/12/08 06:42:12;;;;;;;18.98;8.10;;;2.90;99.90;;;;;;5016322;28;20041;-76
2023/12/08 06:44:38;;;;;;;20.13;8.45;;;2.90;99.90;;;;;;5014694;28;20018;-76
2023/12/08 06:47:04;;;;;;;17.02;7.35;;;2.90;99.90;;;;;;5015055;28;20029;-76
2023/12/08 06:49:30;;;;;;;18.27;7.43;;;2.90;99.90;;;;;;5014841;28;20489;-76
2023/12/08 06:51:56;;;;;;;21.70;8.18;;;2.90;99.90;;;;;;5016193;28;20089;-76
2023/12/08 06:54:21;;;;;;;19.45;8.30;;;2.90;99.90;;;;;;5014751;28;20026;-76
2023/12/08 06:56:47;;;;;;;20.45;8.05;;;2.90;99.90;;;;;;5016207;28;20022;-76
2023/12/08 06:59:12;;;;;;;21.25;8.48;;;2.90;99.90;;;;;;5016291;28;20473;-76
2023/12/08 07:01:38;;;;;;;19.52;8.00;;;2.90;99.90;;;;;;5016417;28;20022;-76
2023/12/08 07:04:04;;;;;;;19.50;7.75;;;2.90;99.90;;;;;;5015866;28;20472;-76
2023/12/08 07:06:30;;;;;;;22.50;7.80;;;3.00;99.90;;;;;;5015943;28;20029;-76
2023/12/08 07:08:56;;;;;;;18.27;7.43;;;3.00;99.90;;;;;;5015592;28;20030;-76
2023/12/08 07:11:22;;;;;;;21.08;8.38;;;3.00;99.90;;;;;;5016199;28;20026;-76
2023/12/08 07:13:48;;;;;;;19.38;8.48;;;3.00;99.90;;;;;;5015524;28;20152;-76
2023/12/08 07:16:14;;;;;;;26.13;8.95;;;3.00;99.90;;;;;;5015627;28;20050;-76
2023/12/08 07:18:40;;;;;;;21.48;8.32;;;2.90;99.90;;;;;;5014535;28;20036;-75
2023/12/08 07:21:05;;;;;;;20.45;8.43;;;2.90;99.90;;;;;;5015496;28;20045;-76
2023/12/08 07:23:31;;;;;;;23.85;9.10;;;2.90;99.90;;;;;;5015456;28;20033;-76
2023/12/08 07:25:57;;;;;;;20.52;8.80;;;2.90;99.90;;;;;;5015562;28;20026;-76
2023/12/08 07:28:22;;;;;;;20.77;7.97;;;2.90;99.90;;;;;;5015415;28;20385;-76
2023/12/08 07:30:48;;;;;;;21.73;8.82;;;2.90;99.90;;;;;;5013944;28;20021;-77
2023/12/08 07:33:13;;;;;;;24.48;8.48;;;2.90;99.90;;;;;;5015242;28;20029;-76
2023/12/08 07:35:39;;;;;;;21.08;8.57;;;3.00;99.90;;;;;;5015251;28;20483;-76
2023/12/08 07:38:04;;;;;;;24.65;9.32;;;3.30;99.90;;;;;;5015122;28;20030;-77
2023/12/08 07:40:30;;;;;;;24.98;9.95;;;3.00;99.90;;;;;;5015042;28;20022;-76
2023/12/08 07:42:56;;;;;;;20.55;8.00;;;3.00;99.90;;;;;;5015152;28;20153;-77
2023/12/08 07:45:21;;;;;;;21.52;8.60;;;3.00;99.90;;;;;;5014044;28;20053;-77
2023/12/08 07:47:47;;;;;;;31.83;10.00;;;3.00;99.90;;;;;;5013583;28;20030;-78
2023/12/08 07:50:14;;;;;;;24.20;8.57;;;3.00;99.90;;;;;;5013686;28;20021;-79
2023/12/08 07:52:41;;;;;;;21.80;7.28;;;3.00;99.90;;;;;;5013722;28;20034;-79
2023/12/08 07:55:08;;;;;;;20.35;8.38;;;3.00;99.90;;;;;;5015429;28;20493;-79
2023/12/08 07:57:34;;;;;;;31.50;9.70;;;;;;;;;;5013968;28;20389;-78
2023/12/08 08:00:00;;;;;;;21.00;8.15;;;3.00;99.90;;;;;;5013538;28;20022;-79
2023/12/08 08:02:26;;;;;;;26.88;9.48;;;3.00;99.90;;;;;;5013773;28;20026;-77
2023/12/08 08:04:53;;;;;;;23.23;9.75;;;3.00;99.90;;;;;;5014866;28;20045;-76
2023/12/08 08:07:19;;;;;;;22.58;9.10;;;3.10;99.90;;;;;;5014882;28;20022;-77
2023/12/08 08:09:44;;;;;;;21.33;8.40;;;3.10;99.90;;;;;;5015086;28;20029;-76
2023/12/08 08:12:10;;;;;;;19.00;8.20;;;3.10;99.90;;;;;;5014683;28;20496;-77
2023/12/08 08:14:36;;;;;;;20.73;7.82;;;3.10;99.90;;;;;;5013429;28;20543;-76
2023/12/08 08:17:01;;;;;;;27.15;9.98;;;3.10;99.90;;;;;;5014862;28;20030;-77
2023/12/08 08:19:27;;;;;;;22.83;8.35;;;3.20;99.90;;;;;;5013455;28;20022;-79
2023/12/08 08:21:53;;;;;;;23.20;8.57;;;3.10;99.90;;;;;;5013554;28;20041;-76
2023/12/08 08:24:19;;;;;;;24.15;8.48;;;3.10;99.90;;;;;;5014215;28;20029;-76
2023/12/08 08:26:45;;;;;;;23.05;9.32;;;3.10;99.90;;;;;;5014409;28;20025;-76
2023/12/08 08:29:11;;;;;;;22.88;8.70;;;3.20;99.90;;;;;;5013184;28;20033;-76
2023/12/08 08:31:36;;;;;;;24.48;8.82;;;3.20;99.90;;;;;;5014302;28;20033;-76
2023/12/08 08:34:03;;;;;;;26.08;8.82;;;3.20;99.90;;;;;;5014587;28;20029;-75
2023/12/08 08:36:29;;;;;;;21.77;7.90;;;3.20;99.90;;;;;;5014938;28;20018;-75
2023/12/08 08:38:55;;;;;;;29.20;9.65;;;3.20;99.90;;;;;;5014186;28;20390;-76
2023/12/08 08:41:21;;;;;;;31.20;10.13;;;3.20;99.90;;;;;;5014079;28;20025;-76
2023/12/08 08:43:47;;;;;;;29.38;9.40;;;3.30;99.90;;;;;;5012815;28;20053;-76
2023/12/08 08:46:13;;;;;;;27.17;9.60;;;3.30;99.90;;;;;;5014293;28;20029;-76
2023/12/08 08:48:38;;;;;;;27.00;9.40;;;3.30;99.90;;;;;;5014036;28;20477;-76
2023/12/08 08:51:04;;;;;;;28.52;10.30;;;3.30;99.90;;;;;;5013822;28;20485;-77
2023/12/08 08:53:30;;;;;;;32.97;9.77;;;3.30;99.90;;;;;;5012940;28;20477;-76
2023/12/08 08:55:56;;;;;;;33.65;9.75;;;3.30;99.90;;;;;;5013860;28;20032;-76
2023/12/08 08:58:21;;;;;;;33.13;10.15;;;3.30;99.90;;;;;;5012532;28;20030;-76
2023/12/08 09:00:47;;;;;;;32.17;10.18;;;3.30;99.90;;;;;;5012496;28;20025;-76
2023/12/08 09:03:12;;;;;;;31.63;10.60;;;3.40;99.90;;;;;;5012672;28;20028;-76
2023/12/08 09:05:41;;;;;;;34.40;10.02;;;3.50;99.90;;;;;;5014284;28;20105;-76
2023/12/08 09:08:08;;;;;;;37.50;10.23;;;3.50;99.90;;;;;;5012328;28;20488;-76
2023/12/08 09:10:34;;;;;;;29.83;9.73;;;3.60;99.90;;;;;;5014630;28;20072;-76
2023/12/08 09:13:00;;;;;;;36.00;10.88;;;3.60;99.90;;;;;;5013987;28;20037;-76
2023/12/08 09:15:25;;;;;;;35.50;10.48;;;3.70;99.90;;;;;;5013608;28;20022;-76
2023/12/08 09:17:52;;;;;;;36.08;10.65;;;3.70;99.90;;;;;;5012512;28;20025;-76
2023/12/08 09:20:20;;;;;;;32.75;10.75;;;3.80;99.90;;;;;;5013562;28;20068;-76
2023/12/08 09:22:46;;;;;;;31.23;10.35;;;3.80;99.90;;;;;;5013719;28;20136;-76
2023/12/08 09:25:12;;;;;;;32.88;10.40;;;3.80;99.90;;;;;;5012400;28;20109;-76
2023/12/08 09:27:37;;;;;;;40.95;10.50;;;3.80;99.90;;;;;;5013705;28;20018;-76
2023/12/08 09:30:04;;;;;;;39.17;9.30;;;3.80;99.90;;;;;;5013875;28;20462;-76
2023/12/08 09:32:29;;;;;;;42.50;10.93;;;3.90;99.90;;;;;;5013482;28;20022;-76
2023/12/08 09:34:55;;;;;;;36.13;10.40;;;3.90;99.90;;;;;;5012511;28;20080;-76
2023/12/08 09:37:20;;;;;;;36.20;10.15;;;3.90;99.90;;;;;;5012294;28;20030;-76
2023/12/08 09:39:46;;;;;;;36.03;10.70;;;3.90;99.90;;;;;;5012003;28;20100;-75
2023/12/08 09:42:21;;;;;;;31.08;11.00;;;3.90;99.90;;;;;;5013396;28;20104;-75
2023/12/08 09:44:48;;;;;;;41.63;10.48;;;3.90;99.90;;;;;;5012104;28;20037;-77
2023/12/08 09:47:18;;;;;;;34.05;10.90;;;3.90;99.90;;;;;;5012345;28;20025;-76
2023/12/08 09:49:46;;;;;;;38.88;10.40;;;4.00;99.90;;;;;;5013635;28;20025;-77
2023/12/08 09:52:14;;;;;;;29.60;9.95;;;4.00;99.90;;;;;;5012139;28;20061;-77
2023/12/08 09:54:43;;;;;;;37.60;11.60;;;4.00;99.90;;;;;;5012223;28;20022;-76
2023/12/08 09:57:09;;;;;;;28.08;8.45;;;4.00;99.90;;;;;;5013470;28;20034;-76
2023/12/08 09:59:37;;;;;;;34.92;11.45;;;4.00;99.90;;;;;;5013337;28;20030;-76
2023/12/08 10:02:03;;;;;;;37.70;10.68;;;4.10;99.90;;;;;;5012235;28;20038;-78
2023/12/08 10:04:29;;;;;;;36.47;10.98;;;4.10;99.90;;;;;;5013239;28;20033;-78
2023/12/08 10:07:00;;;;;;;40.17;10.30;;;4.20;99.90;;;;;;5012229;28;20030;-78
2023/12/08 10:09:29;;;;;;;30.73;9.23;;;4.20;99.90;;;;;;5013462;28;20045;-76
2023/12/08 10:11:54;;;;;;;46.75;11.20;;;4.20;99.90;;;;;;5013344;28;20084;-76
2023/12/08 10:14:21;;;;;;;44.42;12.32;;;4.30;99.90;;;;;;5013154;28;20385;-76
2023/12/08 10:16:47;;;;;;;39.72;12.00;;;4.30;99.90;;;;;;5013243;28;20400;-76
2023/12/08 10:19:12;;;;;;;43.33;12.48;;;4.40;99.90;;;;;;5013647;28;20088;-76
2023/12/08 10:21:38;;;;;;;39.75;12.18;;;4.40;99.90;;;;;;5015465;28;20022;-76
2023/12/08 10:24:05;;;;;;;42.45;11.48;;;4.50;99.90;;;;;;5015877;28;20030;-76
2023/12/08 10:26:32;;;;;;;39.38;11.40;;;4.50;99.90;;;;;;5016721;28;20105;-76
2023/12/08 10:28:59;;;;;;;42.20;11.90;;;4.60;99.90;;;;;;5016816;28;20026;-78
2023/12/08 10:31:25;;;;;;;38.25;10.52;;;4.60;99.90;;;;;;5016486;28;20385;-78
2023/12/08 10:33:51;;;;;;;47.78;13.50;;;4.60;99.90;;;;;;5015542;28;20014;-79
2023/12/08 10:36:18;;;;;;;43.15;12.50;;;4.60;99.90;;;;;;5017171;28;20370;-78
2023/12/08 10:38:45;;;;;;;54.53;12.65;;;4.70;99.90;;;;;;5016195;28;20447;-76
2023/12/08 10:41:11;;;;;;;43.83;11.50;;;4.70;99.90;;;;;;5015369;28;20068;-76
2023/12/08 10:43:39;;;;;;;51.17;12.88;;;4.80;99.90;;;;;;5016022;28;20400;-77
2023/12/08 10:46:06;;;;;;;54.85;13.30;;;4.80;99.90;;;;;;5015473;28;20018;-76
2023/12/08 10:48:32;;;;;;;51.90;12.23;;;4.80;99.90;;;;;;5015424;28;20120;-76
2023/12/08 10:50:59;;;;;;;46.40;11.80;;;4.90;99.90;;;;;;5015043;28;20101;-76
2023/12/08 10:53:25;;;;;;;51.60;11.90;;;5.00;99.90;;;;;;5015313;28;20397;-77
2023/12/08 10:56:04;;;;;;;53.30;13.05;;;5.10;99.90;;;;;;5016724;28;20025;-76
2023/12/08 10:58:32;;;;;;;41.13;9.18;;;5.10;99.90;;;;;;5015189;28;20026;-77
2023/12/08 11:01:00;;;;;;;53.22;11.88;;;5.10;99.90;;;;;;5016735;28;20056;-76
2023/12/08 11:03:32;;;;;;;51.10;12.93;;;5.20;99.90;;;;;;5015058;28;20121;-76
2023/12/08 11:06:08;;;;;;;57.20;12.60;;;9.70;99.90;;;;;;5016658;28;20030;-76
2023/12/08 11:08:35;;;;;;;46.47;12.40;;;5.30;99.90;;;;;;5014854;28;20026;-76
2023/12/08 11:11:03;;;;;;;41.22;12.52;;;5.30;99.90;;;;;;5015970;28;20018;-76
2023/12/08 11:13:33;;;;;;;49.92;12.95;;;5.30;99.90;;;;;;5016299;28;20485;-76
2023/12/08 11:15:59;;;;;;;60.33;13.48;;;5.30;99.90;;;;;;5016066;28;20062;-75
2023/12/08 11:18:28;;;;;;;48.33;13.25;;;5.40;99.90;;;;;;5015184;28;20061;-76
2023/12/08 11:20:54;;;;;;;48.92;12.90;;;5.40;99.90;;;;;;5014995;28;20026;-76
2023/12/08 11:23:21;;;;;;;52.35;13.25;;;5.50;99.90;;;;;;5014716;28;20120;-76
2023/12/08 11:25:59;;;;;;;57.45;12.63;;;5.60;99.90;;;;;;5016470;28;20041;-76
2023/12/08 11:28:38;;;;;;;48.90;14.00;;;5.60;99.90;;;;;;5015583;28;20044;-75
2023/12/08 11:31:17;;;;;;;57.50;12.30;;;5.70;99.90;;;;;;5016025;28;20034;-76
2023/12/08 11:33:47;;;;;;;;;;;5.70;99.90;;;;;;5014814;28;20049;-76
2023/12/08 11:36:18;;;;;;;76.53;13.38;;;5.80;99.90;;;;;;5015790;28;20284;-76
2023/12/08 11:38:44;;;;;;;67.05;13.02;;;;;;;;;;5015755;28;20022;-77
2023/12/08 11:41:13;;;;;;;56.40;13.52;;;5.90;99.90;;;;;;5014347;28;20096;-76
2023/12/08 11:43:44;;;;;;;52.83;12.82;;;5.90;99.90;;;;;;5014486;28;20037;-76
2023/12/08 11:46:10;;;;;;;56.67;14.50;;;5.90;99.90;;;;;;5015694;28;20101;-76
2023/12/08 11:48:36;;;;;;;61.13;13.35;;;5.90;99.90;;;;;;5015259;28;20069;-76
2023/12/08 11:51:05;;;;;;;59.92;14.98;;;5.90;99.90;;;;;;5013889;28;20085;-76
2023/12/08 11:53:57;;;;;;;64.97;13.50;;;6.00;99.90;;;;;;5015458;28;20024;-76
2023/12/08 11:56:42;;;;;;;63.47;13.77;;;6.00;99.90;;;;;;5013992;28;20465;-76
2023/12/08 11:59:08;;;;;;;55.45;15.40;;;6.10;99.90;;;;;;5013798;28;20026;-76
2023/12/08 12:01:41;;;;;;;57.60;13.90;;;6.20;99.90;;;;;;5015581;28;20030;-76
2023/12/08 12:04:08;;;;;;;56.55;12.60;;;6.20;99.90;;;;;;5014125;28;20034;-77
2023/12/08 12:06:35;;;;;;;58.05;13.60;;;6.30;99.90;;;;;;5013571;28;20140;-76
2023/12/08 12:09:01;;;;;;;48.20;13.00;;;6.40;99.90;;;;;;5013604;28;20499;-77
2023/12/08 12:11:31;;;;;;;46.20;12.40;;;6.40;99.90;;;;;;5014578;28;20050;-76
2023/12/08 12:13:59;;;;;;;48.22;12.38;;;6.50;99.90;;;;;;5013484;28;20490;-76
2023/12/08 12:16:25;;;;;;;49.25;12.43;;;6.50;99.90;;;;;;5013410;28;20014;-76
2023/12/08 12:18:51;;;;;;;55.85;13.02;;;6.50;99.90;;;;;;5014796;28;20029;-76
2023/12/08 12:21:18;;;;;;;55.92;12.23;;;8.20;99.90;;;;;;5013319;28;20512;-76
2023/12/08 12:23:46;;;;;;;61.17;12.02;;;6.60;99.90;;;;;;5015319;28;20381;-76
2023/12/08 12:26:13;;;;;;;51.90;13.95;;;6.70;99.90;;;;;;5014554;28;20022;-76
2023/12/08 12:28:39;;;;;;;51.85;13.68;;;6.70;99.90;;;;;;5014340;28;20030;-76
2023/12/08 12:31:04;;;;;;;50.25;12.80;;;6.80;99.90;;;;;;5013271;28;20520;-77
2023/12/08 12:33:36;;;;;;;41.45;11.82;;;6.80;99.90;;;;;;5013069;28;20108;-77
2023/12/08 12:36:03;;;;;;;47.75;12.10;;;8.00;99.90;;;;;;5014918;28;20048;-77
2023/12/08 12:38:29;;;;;;;46.92;13.60;;;6.90;99.90;;;;;;5012940;28;20032;-77
2023/12/08 12:40:55;;;;;;;54.03;12.65;;;6.90;99.90;;;;;;5014165;28;20026;-77